createdAt,value
2022-10-24T00:00:26.793Z,6.550
2022-10-24T00:01:20.887Z,6.400
2022-10-24T00:02:31.377Z,6.650
2022-10-24T00:03:25.756Z,6.350
2022-10-24T00:04:21.739Z,6.450
2022-10-24T00:05:32.533Z,6.300
2022-10-24T00:06:30.049Z,6.550
2022-10-24T00:07:25.617Z,6.600
2022-10-24T00:08:24.527Z,6.400
2022-10-24T00:09:22.170Z,6.650
2022-10-24T00:10:26.699Z,6.350
2022-10-24T00:11:27.843Z,6.500
2022-10-24T00:12:19.850Z,6.650
2022-10-24T00:13:28.772Z,6.600
2022-10-24T00:14:22.656Z,6.600
2022-10-24T00:15:21.618Z,6.900
2022-10-24T00:16:25.251Z,6.800
2022-10-24T00:17:33.796Z,6.150
2022-10-24T00:18:22.632Z,6.000
2022-10-24T00:19:24.030Z,5.900
2022-10-24T00:20:27.236Z,6.000
2022-10-24T00:21:25.896Z,5.750
2022-10-24T00:22:22.777Z,5.550
2022-10-24T00:23:30.998Z,5.200
2022-10-24T00:24:24.156Z,5.400
2022-10-24T00:25:22.731Z,5.450
2022-10-24T00:26:29.795Z,5.550
2022-10-24T00:27:22.239Z,5.400
2022-10-24T00:28:24.887Z,5.500
2022-10-24T00:29:22.489Z,5.600
2022-10-24T00:30:34.456Z,5.750
2022-10-24T00:31:22.003Z,4.900
2022-10-24T00:32:24.756Z,5.150
2022-10-24T00:33:20.201Z,5.100
2022-10-24T00:34:26.124Z,5.550
2022-10-24T00:35:24.500Z,5.300
2022-10-24T00:36:20.794Z,5.500
2022-10-24T00:37:26.658Z,5.550
2022-10-24T00:38:30.068Z,5.000
2022-10-24T00:39:25.176Z,5.050
2022-10-24T00:40:24.853Z,5.300
2022-10-24T00:41:29.509Z,5.350
2022-10-24T00:42:24.622Z,5.200
2022-10-24T00:43:20.634Z,5.300
2022-10-24T00:44:32.029Z,5.550
2022-10-24T00:45:26.914Z,5.700
2022-10-24T00:46:23.347Z,5.300
2022-10-24T00:47:21.323Z,5.400
2022-10-24T00:48:23.797Z,5.400
2022-10-24T00:49:26.652Z,5.450
2022-10-24T00:50:24.119Z,6.000
2022-10-24T00:51:21.770Z,5.250
2022-10-24T00:52:27.562Z,5.600
2022-10-24T00:53:23.473Z,5.800
2022-10-24T00:54:25.657Z,5.750
2022-10-24T00:55:28.800Z,5.600
2022-10-24T00:56:27.264Z,5.700
2022-10-24T00:57:23.726Z,6.050
2022-10-24T00:58:24.445Z,6.000
2022-10-24T00:59:21.957Z,5.700
2022-10-24T01:00:24.128Z,6.000
2022-10-24T01:01:38.161Z,5.500
2022-10-24T01:02:23.749Z,6.450
2022-10-24T01:03:26.436Z,6.000
2022-10-24T01:05:00.700Z,6.100
2022-10-24T01:40:23.086Z,6.600
2022-10-24T01:41:31.559Z,6.700
2022-10-24T01:42:33.269Z,6.450
2022-10-24T01:43:39.357Z,6.900
2022-10-24T01:44:21.718Z,6.800
2022-10-24T01:45:29.259Z,6.700
2022-10-24T02:17:29.921Z,7.400
2022-10-24T02:18:32.342Z,7.050
2022-10-24T02:19:28.743Z,7.050
2022-10-24T02:20:27.527Z,7.100
2022-10-24T02:21:21.889Z,7.200
2022-10-24T02:22:31.919Z,7.350
2022-10-24T02:23:26.660Z,7.000
2022-10-24T02:24:22.872Z,7.200
2022-10-24T02:25:24.285Z,7.050
2022-10-24T02:26:29.662Z,7.300
2022-10-24T02:27:25.182Z,7.300
2022-10-24T02:28:22.301Z,7.450
2022-10-24T02:29:23.298Z,7.400
2022-10-24T02:30:26.651Z,7.500
2022-10-24T02:31:24.123Z,7.300
2022-10-24T02:32:32.062Z,7.100
2022-10-24T02:33:20.910Z,7.250
2022-10-24T02:34:24.856Z,7.600
2022-10-24T02:35:22.720Z,7.400
2022-10-24T02:36:21.641Z,7.200
2022-10-24T02:37:26.560Z,7.200
2022-10-24T02:38:26.936Z,7.050
2022-10-24T02:39:27.843Z,7.050
2022-10-24T02:40:20.191Z,7.000
2022-10-24T02:41:24.629Z,6.800
2022-10-24T02:42:22.779Z,6.900
2022-10-24T02:43:22.642Z,7.000
2022-10-24T02:44:26.467Z,7.000
2022-10-24T02:45:22.552Z,7.200
2022-10-24T02:46:24.521Z,7.150
2022-10-24T02:47:28.926Z,7.150
2022-10-24T02:48:21.174Z,7.000
2022-10-24T02:49:20.654Z,7.200
2022-10-24T02:50:27.596Z,6.950
2022-10-24T02:51:24.410Z,7.000
2022-10-24T02:52:22.607Z,6.900
2022-10-24T02:53:33.226Z,7.250
2022-10-24T02:54:20.906Z,7.050
2022-10-24T02:55:42.509Z,7.100
2022-10-24T02:56:21.475Z,7.300
2022-10-24T02:57:22.230Z,6.900
2022-10-24T02:58:29.150Z,7.400
2022-10-24T02:59:22.487Z,6.700
2022-10-24T03:00:34.967Z,7.150
2022-10-24T03:01:24.611Z,7.000
2022-10-24T03:02:25.002Z,7.050
2022-10-24T03:03:22.085Z,7.250
2022-10-24T03:04:31.287Z,6.850
2022-10-24T03:05:27.218Z,7.000
2022-10-24T03:06:24.063Z,6.850
2022-10-24T03:07:32.710Z,6.900
2022-10-24T03:08:28.930Z,7.100
2022-10-24T03:09:27.159Z,7.300
2022-10-24T03:10:22.293Z,7.200
2022-10-24T03:11:31.572Z,6.800
2022-10-24T03:12:21.657Z,7.300
2022-10-24T03:13:22.861Z,7.000
2022-10-24T03:14:24.235Z,6.800
2022-10-24T03:15:29.166Z,6.900
2022-10-24T03:16:24.876Z,6.800
2022-10-24T03:17:22.949Z,7.400
2022-10-24T03:18:25.012Z,6.750
2022-10-24T03:19:29.422Z,7.000
2022-10-24T03:20:23.862Z,6.800
2022-10-24T03:21:25.795Z,7.100
2022-10-24T03:22:30.789Z,6.900
2022-10-24T03:23:21.166Z,6.650
2022-10-24T03:24:36.894Z,6.800
2022-10-24T03:25:23.521Z,6.800
2022-10-24T03:26:19.933Z,6.950
2022-10-24T03:27:23.808Z,7.200
2022-10-24T03:28:32.525Z,7.150
2022-10-24T03:29:22.992Z,7.050
2022-10-24T03:30:24.763Z,7.100
2022-10-24T03:31:23.401Z,7.250
2022-10-24T03:32:30.577Z,7.200
2022-10-24T03:33:26.770Z,7.200
2022-10-24T03:34:24.762Z,7.450
2022-10-24T03:35:35.612Z,7.150
2022-10-24T03:36:28.819Z,7.000
2022-10-24T03:37:19.954Z,7.100
2022-10-24T03:38:22.187Z,7.300
2022-10-24T03:39:32.562Z,6.900
2022-10-24T03:40:27.724Z,7.000
2022-10-24T03:41:25.258Z,7.000
2022-10-24T03:42:24.608Z,7.300
2022-10-24T03:43:31.231Z,7.350
2022-10-24T03:44:26.291Z,7.600
2022-10-24T03:45:22.245Z,7.250
2022-10-24T03:46:31.036Z,7.400
2022-10-24T03:47:27.890Z,7.400
2022-10-24T03:48:29.524Z,6.800
2022-10-24T03:49:33.077Z,7.200
2022-10-24T03:50:29.931Z,7.400
2022-10-24T03:51:26.545Z,7.350
2022-10-24T03:52:21.206Z,7.600
2022-10-24T03:53:31.007Z,7.300
2022-10-24T03:54:28.277Z,7.500
2022-10-24T03:55:22.615Z,7.200
2022-10-24T03:56:23.662Z,7.300
2022-10-24T03:57:28.918Z,7.050
2022-10-24T03:58:24.520Z,7.400
2022-10-24T03:59:26.723Z,6.950
2022-10-24T04:00:30.891Z,7.400
2022-10-24T04:01:27.163Z,7.400
2022-10-24T04:02:23.861Z,7.850
2022-10-24T04:03:26.757Z,7.100
2022-10-24T04:04:28.887Z,7.300
2022-10-24T04:05:27.237Z,7.700
2022-10-24T04:06:21.191Z,7.500
2022-10-24T04:07:22.568Z,7.900
2022-10-24T04:08:28.959Z,7.300
2022-10-24T04:09:22.506Z,7.300
2022-10-24T04:10:25.271Z,7.700
2022-10-24T04:11:25.064Z,7.250
2022-10-24T04:12:25.072Z,7.300
2022-10-24T04:13:22.108Z,7.650
2022-10-24T04:14:26.656Z,7.650
2022-10-24T04:15:22.216Z,7.400
2022-10-24T04:16:23.035Z,7.750
2022-10-24T04:17:23.482Z,7.550
2022-10-24T04:18:29.692Z,8.200
2022-10-24T04:19:19.699Z,7.450
2022-10-24T04:20:21.969Z,7.300
2022-10-24T04:21:45.670Z,7.600
2022-10-24T04:22:24.230Z,7.200
2022-10-24T04:23:25.421Z,7.500
2022-10-24T04:24:28.470Z,7.150
2022-10-24T04:25:32.751Z,7.350
2022-10-24T04:26:25.121Z,7.400
2022-10-24T04:27:26.041Z,7.200
2022-10-24T04:28:20.658Z,7.550
2022-10-24T04:29:29.911Z,6.900
2022-10-24T04:30:24.995Z,7.100
2022-10-24T04:31:31.347Z,7.200
2022-10-24T04:32:28.612Z,7.600
2022-10-24T04:33:28.675Z,7.400
2022-10-24T04:34:20.618Z,7.000
2022-10-24T04:35:24.327Z,7.300
2022-10-24T04:36:28.034Z,7.650
2022-10-24T04:37:24.995Z,7.700
2022-10-24T04:38:22.151Z,7.600
2022-10-24T04:39:28.666Z,7.300
2022-10-24T04:40:25.738Z,7.700
2022-10-24T04:41:22.305Z,7.600
2022-10-24T04:42:26.485Z,7.400
2022-10-24T04:43:31.796Z,7.700
2022-10-24T04:44:25.364Z,7.250
2022-10-24T04:45:24.492Z,7.600
2022-10-24T04:46:24.883Z,7.900
2022-10-24T04:47:28.426Z,7.850
2022-10-24T04:48:20.787Z,7.450
2022-10-24T04:49:22.109Z,7.400
2022-10-24T04:50:28.906Z,7.500
2022-10-24T04:51:26.930Z,7.550
2022-10-24T04:52:26.170Z,7.200
2022-10-24T04:53:24.443Z,7.650
2022-10-24T04:54:24.660Z,7.700
2022-10-24T04:55:22.339Z,7.250
2022-10-24T04:56:26.843Z,7.600
2022-10-24T04:57:19.196Z,7.450
2022-10-24T04:58:22.866Z,6.900
2022-10-24T04:59:34.776Z,7.800
2022-10-24T05:00:26.939Z,6.900
2022-10-24T05:01:33.142Z,7.450
2022-10-24T05:02:26.124Z,7.800
2022-10-24T05:03:32.353Z,7.800
2022-10-24T05:04:26.748Z,7.700
2022-10-24T05:05:22.692Z,7.300
2022-10-24T05:06:39.263Z,7.900
2022-10-24T05:07:35.309Z,7.550
2022-10-24T05:08:21.236Z,7.400
2022-10-24T05:09:22.587Z,7.150
2022-10-24T05:10:35.713Z,7.700
2022-10-24T05:11:26.821Z,7.300
2022-10-24T05:12:24.575Z,7.400
2022-10-24T05:13:36.613Z,8.100
2022-10-24T05:14:39.456Z,7.550
2022-10-24T05:15:20.401Z,7.300
2022-10-24T05:16:23.811Z,7.900
2022-10-24T05:17:31.377Z,7.800
2022-10-24T05:18:30.792Z,7.650
2022-10-24T05:19:26.687Z,8.000
2022-10-24T05:20:35.831Z,8.100
2022-10-24T05:21:28.967Z,7.750
2022-10-24T05:22:27.679Z,7.400
2022-10-24T05:23:25.044Z,7.200
2022-10-24T05:24:33.209Z,7.450
2022-10-24T05:25:27.033Z,7.500
2022-10-24T05:26:23.245Z,7.600
2022-10-24T05:27:22.495Z,7.900
2022-10-24T05:28:31.279Z,7.450
2022-10-24T05:29:27.059Z,7.550
2022-10-24T05:30:22.586Z,7.900
2022-10-24T05:31:36.809Z,7.700
2022-10-24T05:32:29.144Z,7.500
2022-10-24T05:33:25.329Z,7.200
2022-10-24T05:34:27.109Z,8.000
2022-10-24T05:35:33.012Z,7.700
2022-10-24T05:36:25.693Z,7.900
2022-10-24T05:37:22.513Z,7.950
2022-10-24T05:38:26.416Z,8.000
2022-10-24T05:39:26.739Z,8.100
2022-10-24T05:40:26.565Z,7.500
2022-10-24T05:41:30.071Z,7.400
2022-10-24T05:42:23.165Z,7.500
2022-10-24T05:43:26.279Z,7.500
2022-10-24T05:44:22.464Z,7.450
2022-10-24T05:45:29.010Z,7.600
2022-10-24T05:46:22.630Z,7.400
2022-10-24T05:47:24.684Z,7.700
2022-10-24T05:48:32.633Z,7.550
2022-10-24T05:49:30.628Z,7.300
2022-10-24T05:50:25.793Z,7.500
2022-10-24T05:51:25.595Z,7.800
2022-10-24T05:52:33.324Z,7.950
2022-10-24T05:53:29.460Z,7.550
2022-10-24T05:54:22.886Z,7.900
2022-10-24T05:55:36.981Z,7.600
2022-10-24T05:56:29.824Z,7.500
2022-10-24T05:57:27.785Z,8.000
2022-10-24T05:58:21.127Z,7.500
2022-10-24T05:59:31.083Z,7.200
2022-10-24T06:00:30.373Z,7.500
2022-10-24T06:01:28.046Z,7.400
2022-10-24T06:02:22.410Z,7.600
2022-10-24T06:03:31.264Z,7.850
2022-10-24T06:04:29.733Z,7.800
2022-10-24T06:05:27.320Z,7.750
2022-10-24T06:06:34.158Z,7.950
2022-10-24T06:07:26.570Z,7.700
2022-10-24T06:08:22.747Z,7.600
2022-10-24T06:09:26.753Z,7.000
2022-10-24T06:10:29.655Z,7.850
2022-10-24T06:11:24.512Z,7.000
2022-10-24T06:12:25.759Z,7.600
2022-10-24T06:13:35.251Z,7.600
2022-10-24T06:14:28.783Z,7.600
2022-10-24T06:15:25.253Z,7.850
2022-10-24T06:16:23.135Z,7.900
2022-10-24T06:17:33.097Z,7.750
2022-10-24T06:18:27.885Z,7.400
2022-10-24T06:19:21.045Z,7.500
2022-10-24T06:20:23.152Z,7.200
2022-10-24T06:21:27.422Z,8.050
2022-10-24T06:22:24.145Z,7.700
2022-10-24T06:23:29.795Z,7.800
2022-10-24T06:24:20.462Z,7.500
2022-10-24T06:25:25.150Z,7.400
2022-10-24T06:26:23.922Z,7.500
2022-10-24T06:27:24.632Z,7.300
2022-10-24T06:28:30.302Z,7.600
2022-10-24T06:29:25.336Z,7.250
2022-10-24T06:30:32.801Z,7.400
2022-10-24T06:31:19.592Z,7.500
2022-10-24T06:32:24.947Z,7.500
2022-10-24T06:33:25.643Z,8.200
2022-10-24T06:34:30.933Z,8.000
2022-10-24T06:35:21.781Z,7.650
2022-10-24T06:36:26.833Z,7.900
2022-10-24T06:37:38.041Z,7.550
2022-10-24T06:38:27.029Z,7.500
2022-10-24T06:39:23.073Z,8.250
2022-10-24T06:40:21.564Z,8.250
2022-10-24T06:41:32.948Z,7.900
2022-10-24T06:42:27.244Z,7.850
2022-10-24T06:43:22.970Z,7.500
2022-10-24T06:44:35.532Z,8.200
2022-10-24T06:45:27.081Z,7.800
2022-10-24T06:46:27.792Z,7.750
2022-10-24T06:47:24.203Z,7.400
2022-10-24T06:48:41.269Z,7.650
2022-10-24T06:49:22.229Z,7.200
2022-10-24T06:50:28.722Z,7.100
2022-10-24T06:51:36.812Z,7.200
2022-10-24T06:52:28.810Z,7.500
2022-10-24T06:53:24.965Z,7.600
2022-10-24T06:54:26.526Z,7.550
2022-10-24T06:55:31.043Z,7.500
2022-10-24T06:56:25.348Z,7.750
2022-10-24T06:57:25.542Z,7.550
2022-10-24T06:58:20.061Z,7.400
2022-10-24T06:59:31.397Z,7.500
2022-10-24T07:00:24.981Z,7.550
2022-10-24T07:01:22.991Z,7.400
2022-10-24T07:02:20.470Z,7.800
2022-10-24T07:03:27.829Z,7.700
2022-10-24T07:04:23.890Z,7.500
2022-10-24T07:05:23.744Z,7.300
2022-10-24T07:06:32.056Z,7.350
2022-10-24T07:07:21.593Z,7.600
2022-10-24T07:08:23.876Z,7.650
2022-10-24T07:09:24.206Z,7.900
2022-10-24T07:10:29.284Z,7.900
2022-10-24T07:11:22.892Z,7.550
2022-10-24T07:12:27.885Z,7.900
2022-10-24T07:13:20.857Z,8.050
2022-10-24T07:14:24.707Z,8.100
2022-10-24T07:15:21.068Z,7.100
2022-10-24T07:16:35.366Z,7.300
2022-10-24T07:17:23.115Z,7.800
2022-10-24T07:18:21.695Z,8.300
2022-10-24T07:19:37.329Z,8.000
2022-10-24T07:20:25.102Z,7.800
2022-10-24T07:21:27.275Z,7.900
2022-10-24T07:22:20.779Z,7.550
2022-10-24T07:23:32.617Z,7.900
2022-10-24T07:24:28.787Z,7.250
2022-10-24T07:25:23.955Z,7.750
2022-10-24T07:26:35.598Z,7.400
2022-10-24T07:27:32.273Z,7.650
2022-10-24T07:28:26.033Z,7.700
2022-10-24T07:29:22.891Z,7.650
2022-10-24T07:30:30.974Z,8.000
2022-10-24T07:31:33.121Z,7.900
2022-10-24T07:32:25.302Z,7.000
2022-10-24T07:33:32.842Z,7.700
2022-10-24T07:34:29.342Z,7.300
2022-10-24T07:35:25.671Z,7.900
2022-10-24T07:36:20.733Z,7.150
2022-10-24T07:37:31.422Z,7.800
2022-10-24T07:38:25.320Z,7.650
2022-10-24T07:39:26.597Z,7.450
2022-10-24T07:40:20.043Z,7.350
2022-10-24T07:41:29.041Z,6.800
2022-10-24T07:42:26.729Z,7.450
2022-10-24T07:43:23.842Z,7.000
2022-10-24T07:44:30.857Z,6.800
2022-10-24T07:45:29.262Z,7.000
2022-10-24T07:46:23.362Z,7.000
2022-10-24T07:47:25.770Z,7.250
2022-10-24T07:48:29.163Z,7.550
2022-10-24T07:49:22.035Z,7.500
2022-10-24T07:50:38.280Z,7.750
2022-10-24T07:51:19.796Z,7.700
2022-10-24T07:52:28.508Z,7.800
2022-10-24T07:53:23.045Z,7.850
2022-10-24T07:54:28.985Z,8.100
2022-10-24T07:55:22.349Z,8.000
2022-10-24T07:56:25.125Z,7.800
2022-10-24T07:57:22.465Z,9.400
2022-10-24T07:58:25.704Z,9.150
2022-10-24T07:59:41.339Z,8.950
2022-10-24T08:00:23.639Z,9.200
2022-10-24T08:01:24.356Z,8.500
2022-10-24T08:02:25.208Z,8.400
2022-10-24T08:03:29.242Z,8.200
2022-10-24T08:04:21.051Z,9.050
2022-10-24T08:05:23.010Z,10.200
2022-10-24T08:06:25.763Z,9.250
2022-10-24T08:07:22.999Z,8.750
2022-10-24T08:08:36.598Z,9.800
2022-10-24T08:09:31.136Z,9.850
2022-10-24T08:10:25.246Z,10.300
2022-10-24T08:11:22.275Z,9.300
2022-10-24T08:12:27.723Z,9.400
2022-10-24T08:13:27.253Z,8.700
2022-10-24T08:14:23.264Z,9.000
2022-10-24T08:15:35.575Z,7.900
2022-10-24T08:16:28.762Z,8.350
2022-10-24T08:17:20.196Z,8.450
2022-10-24T08:18:24.369Z,8.100
2022-10-24T08:19:30.510Z,7.700
2022-10-24T08:20:31.149Z,8.000
2022-10-24T08:21:25.498Z,7.800
2022-10-24T08:22:33.625Z,7.600
2022-10-24T08:23:25.416Z,8.450
2022-10-24T08:24:27.521Z,8.100
2022-10-24T08:25:24.210Z,7.800
2022-10-24T08:26:34.813Z,7.900
2022-10-24T08:27:27.212Z,8.250
2022-10-24T08:28:25.894Z,9.050
2022-10-24T08:29:30.228Z,8.200
2022-10-24T08:30:26.825Z,8.550
2022-10-24T08:31:28.094Z,8.550
2022-10-24T08:32:24.246Z,9.200
2022-10-24T08:33:23.948Z,8.900
2022-10-24T08:34:22.941Z,8.950
2022-10-24T08:35:25.415Z,9.600
2022-10-24T08:36:24.965Z,8.400
2022-10-24T08:37:32.425Z,8.300
2022-10-24T08:38:26.484Z,8.850
2022-10-24T08:39:21.090Z,9.300
2022-10-24T08:40:30.543Z,9.200
2022-10-24T08:41:26.960Z,9.400
2022-10-24T08:42:24.400Z,8.950
2022-10-24T08:43:26.702Z,8.550
2022-10-24T08:44:20.934Z,8.700
2022-10-24T08:45:27.671Z,8.450
2022-10-24T08:46:21.053Z,9.050
2022-10-24T08:47:32.071Z,8.500
2022-10-24T08:48:26.945Z,7.900
2022-10-24T08:49:23.075Z,8.800
2022-10-24T08:50:34.203Z,7.900
2022-10-24T08:51:27.415Z,8.400
2022-10-24T08:52:20.001Z,8.100
2022-10-24T08:53:21.557Z,7.500
2022-10-24T08:54:32.964Z,9.000
2022-10-24T08:55:48.327Z,8.900
2022-10-24T08:56:23.269Z,8.600
2022-10-24T08:57:28.819Z,8.700
2022-10-24T08:58:31.303Z,8.600
2022-10-24T08:59:27.827Z,8.800
2022-10-24T09:00:22.084Z,8.950
2022-10-24T09:01:31.037Z,8.900
2022-10-24T09:02:24.793Z,9.450
2022-10-24T09:03:31.463Z,9.400
2022-10-24T09:04:51.050Z,9.050
2022-10-24T09:05:35.172Z,8.400
2022-10-24T09:06:28.209Z,8.200
2022-10-24T09:07:21.360Z,7.900
2022-10-24T09:08:27.006Z,7.750
2022-10-24T09:09:26.788Z,8.700
2022-10-24T09:10:23.452Z,8.000
2022-10-24T09:11:20.994Z,8.550
2022-10-24T09:12:28.936Z,8.350
2022-10-24T09:13:24.957Z,9.100
2022-10-24T09:14:21.577Z,8.950
2022-10-24T09:15:32.328Z,8.900
2022-10-24T09:16:27.000Z,7.900
2022-10-24T09:17:26.269Z,7.500
2022-10-24T09:18:26.369Z,8.100
2022-10-24T09:19:24.218Z,8.400
2022-10-24T09:20:27.225Z,7.600
2022-10-24T09:21:21.634Z,7.050
2022-10-24T09:22:31.068Z,7.300
2022-10-24T09:23:29.878Z,8.000
2022-10-24T09:24:23.078Z,8.300
2022-10-24T09:25:29.073Z,8.100
2022-10-24T09:26:24.025Z,8.300
2022-10-24T09:27:24.867Z,9.250
2022-10-24T09:28:25.499Z,9.700
2022-10-24T09:29:26.238Z,10.350
2022-10-24T09:30:21.102Z,10.200
2022-10-24T09:31:24.151Z,9.500
2022-10-24T09:32:48.157Z,9.100
2022-10-24T09:33:27.201Z,8.600
2022-10-24T09:34:24.652Z,9.350
2022-10-24T09:35:23.844Z,8.200
2022-10-24T09:36:28.499Z,8.850
2022-10-24T09:37:22.611Z,8.750
2022-10-24T09:38:24.045Z,7.900
2022-10-24T09:39:23.014Z,8.150
2022-10-24T09:40:30.162Z,7.200
2022-10-24T09:41:24.830Z,8.000
2022-10-24T09:42:21.673Z,8.700
2022-10-24T09:43:31.889Z,9.150
2022-10-24T09:44:24.820Z,8.800
2022-10-24T09:45:23.284Z,8.250
2022-10-24T09:46:23.040Z,7.500
2022-10-24T09:47:22.241Z,7.450
2022-10-24T09:48:30.538Z,7.600
2022-10-24T09:49:21.669Z,8.700
2022-10-24T09:50:31.019Z,8.750
2022-10-24T09:51:29.261Z,8.800
2022-10-24T09:52:23.318Z,8.600
2022-10-24T09:53:27.294Z,8.600
2022-10-24T09:54:29.102Z,8.000
2022-10-24T09:55:25.096Z,8.000
2022-10-24T09:56:22.421Z,7.650
2022-10-24T09:57:20.647Z,7.800
2022-10-24T09:58:27.103Z,8.000
2022-10-24T09:59:24.710Z,8.100
2022-10-24T10:00:29.047Z,8.800
2022-10-24T10:01:30.964Z,8.000
2022-10-24T10:02:25.543Z,7.400
2022-10-24T10:03:24.054Z,7.300
2022-10-24T10:04:44.427Z,7.950
2022-10-24T10:05:27.120Z,7.500
2022-10-24T10:06:23.039Z,7.400
2022-10-24T10:07:23.206Z,6.950
2022-10-24T10:08:31.228Z,7.150
2022-10-24T10:09:25.346Z,6.700
2022-10-24T10:10:25.245Z,7.000
2022-10-24T10:11:35.446Z,6.700
2022-10-24T10:12:27.010Z,6.450
2022-10-24T10:13:23.184Z,6.700
2022-10-24T10:14:25.748Z,6.350
2022-10-24T10:15:21.807Z,6.600
2022-10-24T10:16:27.390Z,6.100
2022-10-24T10:17:22.343Z,5.700
2022-10-24T10:18:30.777Z,5.700
2022-10-24T10:19:23.726Z,5.550
2022-10-24T10:20:22.990Z,5.550
2022-10-24T10:21:26.837Z,6.000
2022-10-24T10:22:26.422Z,5.800
2022-10-24T10:23:24.897Z,5.450
2022-10-24T10:24:22.964Z,5.000
2022-10-24T10:25:33.899Z,4.350
2022-10-24T10:26:21.169Z,4.900
2022-10-24T10:27:20.966Z,4.600
2022-10-24T10:28:33.769Z,3.850
2022-10-24T10:29:28.807Z,4.300
2022-10-24T10:30:22.171Z,4.150
2022-10-24T10:31:22.277Z,4.100
2022-10-24T10:32:23.307Z,3.900
2022-10-24T10:33:22.802Z,3.350
2022-10-24T10:34:23.865Z,3.400
2022-10-24T10:35:34.698Z,3.250
2022-10-24T10:36:30.466Z,3.300
2022-10-24T10:37:24.782Z,3.200
2022-10-24T10:38:20.911Z,3.250
2022-10-24T10:39:31.455Z,2.950
2022-10-24T10:40:28.875Z,3.200
2022-10-24T10:41:22.891Z,2.500
2022-10-24T10:42:23.157Z,2.850
2022-10-24T10:43:19.780Z,2.850
2022-10-24T10:44:20.597Z,2.800
2022-10-24T10:45:22.363Z,3.000
2022-10-24T10:46:32.351Z,2.750
2022-10-24T10:47:28.389Z,2.600
2022-10-24T10:48:23.469Z,2.650
2022-10-24T10:49:27.587Z,2.650
2022-10-24T10:50:29.333Z,2.750
2022-10-24T10:51:25.182Z,2.600
2022-10-24T10:52:20.866Z,2.800
2022-10-24T10:53:31.167Z,2.800
2022-10-24T10:54:27.267Z,2.600
2022-10-24T10:55:24.253Z,2.500
2022-10-24T10:56:31.031Z,2.600
2022-10-24T10:57:25.497Z,2.750
2022-10-24T10:58:26.800Z,2.600
2022-10-24T10:59:23.533Z,2.550
2022-10-24T11:00:21.873Z,2.600
2022-10-24T11:01:28.565Z,2.400
2022-10-24T11:02:24.160Z,3.000
2022-10-24T11:03:33.961Z,2.600
2022-10-24T11:04:32.017Z,2.550
2022-10-24T11:05:19.826Z,2.600
2022-10-24T11:06:23.613Z,2.500
2022-10-24T11:07:26.883Z,2.500
2022-10-24T11:08:29.471Z,2.500
2022-10-24T11:09:42.964Z,2.300
2022-10-24T11:10:32.900Z,2.700
2022-10-24T11:11:33.823Z,2.450
2022-10-24T11:12:26.999Z,2.700
2022-10-24T11:13:25.055Z,2.300
2022-10-24T11:14:32.792Z,2.550
2022-10-24T11:15:25.191Z,2.600
2022-10-24T11:16:27.170Z,2.650
2022-10-24T11:17:27.121Z,2.550
2022-10-24T11:18:35.441Z,2.500
2022-10-24T11:19:26.663Z,2.350
2022-10-24T11:20:22.841Z,2.500
2022-10-24T11:21:33.683Z,2.500
2022-10-24T11:22:29.081Z,2.550
2022-10-24T11:23:21.007Z,2.750
2022-10-24T11:24:32.789Z,2.850
2022-10-24T11:25:28.790Z,2.700
2022-10-24T11:26:28.215Z,2.650
2022-10-24T11:27:23.627Z,2.600
2022-10-24T11:28:23.424Z,2.700
2022-10-24T11:29:26.908Z,2.950
2022-10-24T11:30:23.587Z,2.900
2022-10-24T11:31:22.814Z,2.700
2022-10-24T11:32:29.076Z,2.950
2022-10-24T11:33:30.105Z,3.100
2022-10-24T11:34:23.382Z,2.850
2022-10-24T11:35:22.474Z,3.050
2022-10-24T11:36:29.888Z,3.100
2022-10-24T11:37:24.989Z,3.150
2022-10-24T11:38:20.738Z,3.050
2022-10-24T11:39:28.749Z,3.300
2022-10-24T11:40:31.464Z,3.150
2022-10-24T11:41:23.637Z,3.350
2022-10-24T11:42:29.631Z,3.200
2022-10-24T11:43:23.466Z,3.400
2022-10-24T11:44:25.430Z,3.300
2022-10-24T11:45:26.351Z,3.650
2022-10-24T11:46:29.223Z,3.600
2022-10-24T11:47:26.364Z,3.700
2022-10-24T11:48:22.709Z,3.550
2022-10-24T11:49:21.641Z,3.900
2022-10-24T11:50:25.650Z,3.800
2022-10-24T11:51:23.938Z,3.850
2022-10-24T11:52:29.506Z,3.500
2022-10-24T11:53:23.189Z,3.300
2022-10-24T11:54:27.137Z,3.750
2022-10-24T11:55:25.180Z,3.300
2022-10-24T11:56:23.515Z,3.350
2022-10-24T11:57:32.025Z,3.900
2022-10-24T11:58:26.375Z,3.700
2022-10-24T11:59:33.095Z,3.700
2022-10-24T12:00:24.435Z,3.900
2022-10-24T12:01:29.025Z,3.800
2022-10-24T12:02:23.338Z,3.800
2022-10-24T12:03:27.569Z,3.700
2022-10-24T12:04:29.376Z,3.850
2022-10-24T12:05:25.903Z,3.600
2022-10-24T12:06:36.781Z,3.650
2022-10-24T12:07:22.358Z,3.800
2022-10-24T12:08:26.389Z,3.700
2022-10-24T12:09:21.835Z,3.650
2022-10-24T12:10:35.391Z,3.700
2022-10-24T12:11:27.671Z,3.450
2022-10-24T12:12:23.991Z,3.650
2022-10-24T12:13:24.765Z,3.500
2022-10-24T12:14:26.090Z,3.500
2022-10-24T12:15:26.664Z,3.550
2022-10-24T12:16:23.153Z,3.700
2022-10-24T12:17:35.283Z,3.400
2022-10-24T12:18:20.386Z,3.450
2022-10-24T12:19:25.152Z,3.500
2022-10-24T12:20:27.355Z,3.650
2022-10-24T12:21:29.077Z,3.500
2022-10-24T12:22:28.125Z,3.700
2022-10-24T12:23:25.564Z,3.500
2022-10-24T12:24:32.770Z,3.750
2022-10-24T12:25:23.340Z,3.900
2022-10-24T12:26:26.316Z,3.650
2022-10-24T12:27:34.057Z,3.650
2022-10-24T12:28:25.796Z,3.300
2022-10-24T12:29:25.514Z,3.400
2022-10-24T12:30:25.737Z,3.300
2022-10-24T12:31:25.518Z,3.400
2022-10-24T12:32:28.342Z,3.450
2022-10-24T12:33:23.181Z,3.200
2022-10-24T12:34:34.459Z,3.500
2022-10-24T12:35:31.753Z,3.700
2022-10-24T12:36:25.231Z,3.850
2022-10-24T12:37:25.140Z,3.600
2022-10-24T12:38:26.083Z,3.350
2022-10-24T12:39:30.332Z,3.150
2022-10-24T12:40:23.857Z,3.400
2022-10-24T12:41:20.744Z,3.600
2022-10-24T12:42:33.700Z,3.500
2022-10-24T12:43:26.449Z,3.350
2022-10-24T12:44:21.512Z,3.500
2022-10-24T12:45:33.435Z,3.350
2022-10-24T12:46:23.247Z,3.350
2022-10-24T12:47:19.696Z,3.100
2022-10-24T12:48:35.248Z,3.150
2022-10-24T12:49:28.717Z,3.600
2022-10-24T12:50:33.886Z,3.300
2022-10-24T12:51:22.157Z,3.350
2022-10-24T12:52:32.284Z,3.100
2022-10-24T12:53:28.449Z,3.200
2022-10-24T12:54:23.215Z,3.050
2022-10-24T12:55:38.313Z,3.400
2022-10-24T12:56:29.545Z,3.100
2022-10-24T12:57:24.833Z,3.300
2022-10-24T12:58:22.537Z,3.350
2022-10-24T12:59:33.563Z,3.000
2022-10-24T13:00:29.396Z,2.800
2022-10-24T13:01:28.509Z,3.000
2022-10-24T13:02:37.751Z,3.050
2022-10-24T13:03:29.515Z,2.800
2022-10-24T13:04:28.638Z,3.000
2022-10-24T13:05:25.137Z,3.200
2022-10-24T13:06:23.884Z,3.050
2022-10-24T13:07:31.889Z,3.000
2022-10-24T13:08:27.640Z,2.900
2022-10-24T13:09:37.416Z,3.000
2022-10-24T13:10:29.172Z,2.700
2022-10-24T13:11:27.359Z,2.800
2022-10-24T13:12:23.656Z,2.750
2022-10-24T13:13:27.357Z,2.900
2022-10-24T13:14:24.651Z,2.600
2022-10-24T13:15:24.308Z,3.050
2022-10-24T13:16:26.246Z,2.750
2022-10-24T13:17:32.605Z,2.700
2022-10-24T13:18:28.723Z,3.150
2022-10-24T13:19:24.168Z,3.100
2022-10-24T13:20:32.421Z,3.100
2022-10-24T13:21:41.049Z,2.800
2022-10-24T13:22:23.179Z,3.100
2022-10-24T13:23:26.160Z,2.900
2022-10-24T13:24:20.560Z,2.800
2022-10-24T13:25:25.283Z,2.800
2022-10-24T13:26:22.852Z,2.950
2022-10-24T13:27:31.079Z,2.850
2022-10-24T13:28:28.606Z,3.000
2022-10-24T13:29:25.144Z,2.750
2022-10-24T13:30:24.657Z,2.850
2022-10-24T13:31:25.034Z,3.000
2022-10-24T13:32:28.974Z,3.050
2022-10-24T13:33:21.449Z,2.850
2022-10-24T13:34:23.239Z,2.900
2022-10-24T13:35:42.904Z,2.950
2022-10-24T13:36:28.572Z,2.950
2022-10-24T13:37:27.691Z,3.000
2022-10-24T13:38:31.115Z,3.050
2022-10-24T13:39:24.646Z,2.800
2022-10-24T13:40:21.544Z,3.250
2022-10-24T13:41:22.495Z,3.000
2022-10-24T13:42:27.222Z,2.900
2022-10-24T13:43:23.436Z,3.100
2022-10-24T13:44:24.418Z,2.900
2022-10-24T13:45:30.116Z,3.200
2022-10-24T13:46:25.466Z,3.100
2022-10-24T13:47:23.277Z,3.200
2022-10-24T13:48:26.997Z,2.950
2022-10-24T13:49:29.451Z,3.050
2022-10-24T13:50:23.008Z,3.300
2022-10-24T13:51:26.903Z,3.250
2022-10-24T13:52:21.233Z,3.100
2022-10-24T13:53:31.032Z,3.100
2022-10-24T13:54:22.705Z,2.800
2022-10-24T13:55:33.589Z,3.050
2022-10-24T13:56:29.039Z,3.050
2022-10-24T13:57:25.678Z,3.000
2022-10-24T13:58:36.639Z,2.900